sensor_id;sensor_type;location;lat;lon;timestamp;P1;durP1;ratioP1;P2;durP2;ratioP2
8716;SDS011;4395;48.554;8.820;2023-03-13T00:01:46;7.80;;;1.90;;
8716;SDS011;4395;48.554;8.820;2023-03-13T00:03:50;5.07;;;1.85;;
8716;SDS011;4395;48.554;8.820;2023-03-13T00:05:56;7.50;;;1.75;;
8716;SDS011;4395;48.554;8.820;2023-03-13T00:07:59;6.13;;;2.25;;
8716;SDS011;4395;48.554;8.820;2023-03-13T00:10:02;5.72;;;1.85;;
8716;SDS011;4395;48.554;8.820;2023-03-13T00:12:05;4.93;;;1.73;;
8716;SDS011;4395;48.554;8.820;2023-03-13T00:14:09;6.63;;;1.92;;
8716;SDS011;4395;48.554;8.820;2023-03-13T00:16:13;5.32;;;1.77;;
8716;SDS011;4395;48.554;8.820;2023-03-13T00:18:18;7.05;;;2.22;;
8716;SDS011;4395;48.554;8.820;2023-03-13T00:20:20;5.43;;;1.85;;
8716;SDS011;4395;48.554;8.820;2023-03-13T00:22:23;6.90;;;2.00;;
8716;SDS011;4395;48.554;8.820;2023-03-13T00:24:26;7.80;;;2.47;;
8716;SDS011;4395;48.554;8.820;2023-03-13T00:26:29;6.43;;;1.98;;
8716;SDS011;4395;48.554;8.820;2023-03-13T00:28:32;6.15;;;1.80;;
8716;SDS011;4395;48.554;8.820;2023-03-13T00:30:36;5.03;;;1.77;;
8716;SDS011;4395;48.554;8.820;2023-03-13T00:32:41;4.35;;;1.60;;
8716;SDS011;4395;48.554;8.820;2023-03-13T00:34:46;4.93;;;1.77;;
8716;SDS011;4395;48.554;8.820;2023-03-13T00:36:49;4.57;;;1.45;;
8716;SDS011;4395;48.554;8.820;2023-03-13T00:38:52;4.22;;;1.45;;
8716;SDS011;4395;48.554;8.820;2023-03-13T00:40:59;4.70;;;1.75;;
8716;SDS011;4395;48.554;8.820;2023-03-13T00:43:03;4.97;;;1.38;;
8716;SDS011;4395;48.554;8.820;2023-03-13T00:45:06;5.88;;;1.90;;
8716;SDS011;4395;48.554;8.820;2023-03-13T00:47:10;4.55;;;1.30;;
8716;SDS011;4395;48.554;8.820;2023-03-13T00:49:14;3.78;;;1.77;;
8716;SDS011;4395;48.554;8.820;2023-03-13T00:51:17;4.40;;;2.30;;
8716;SDS011;4395;48.554;8.820;2023-03-13T00:53:21;3.92;;;1.48;;
8716;SDS011;4395;48.554;8.820;2023-03-13T00:55:24;5.53;;;1.52;;
8716;SDS011;4395;48.554;8.820;2023-03-13T00:57:27;6.28;;;2.00;;
8716;SDS011;4395;48.554;8.820;2023-03-13T00:59:30;4.63;;;1.60;;
8716;SDS011;4395;48.554;8.820;2023-03-13T01:01:33;4.50;;;1.73;;
8716;SDS011;4395;48.554;8.820;2023-03-13T01:03:37;7.00;;;1.63;;
8716;SDS011;4395;48.554;8.820;2023-03-13T01:05:42;3.90;;;1.80;;
8716;SDS011;4395;48.554;8.820;2023-03-13T01:07:45;5.90;;;1.80;;
8716;SDS011;4395;48.554;8.820;2023-03-13T01:09:48;4.60;;;1.50;;
8716;SDS011;4395;48.554;8.820;2023-03-13T01:11:52;4.60;;;1.45;;
8716;SDS011;4395;48.554;8.820;2023-03-13T01:13:55;5.43;;;1.58;;
8716;SDS011;4395;48.554;8.820;2023-03-13T01:16:03;8.80;;;2.20;;
8716;SDS011;4395;48.554;8.820;2023-03-13T01:18:06;7.35;;;1.80;;
8716;SDS011;4395;48.554;8.820;2023-03-13T01:20:10;5.85;;;1.63;;
8716;SDS011;4395;48.554;8.820;2023-03-13T01:22:15;4.22;;;1.98;;
8716;SDS011;4395;48.554;8.820;2023-03-13T01:24:18;4.78;;;2.00;;
8716;SDS011;4395;48.554;8.820;2023-03-13T01:26:22;6.82;;;2.05;;
8716;SDS011;4395;48.554;8.820;2023-03-13T01:28:27;5.25;;;1.88;;
8716;SDS011;4395;48.554;8.820;2023-03-13T01:30:30;6.18;;;1.90;;
8716;SDS011;4395;48.554;8.820;2023-03-13T01:32:32;7.45;;;1.85;;
8716;SDS011;4395;48.554;8.820;2023-03-13T01:34:36;2.38;;;1.70;;
8716;SDS011;4395;48.554;8.820;2023-03-13T01:36:40;4.95;;;1.83;;
8716;SDS011;4395;48.554;8.820;2023-03-13T01:38:47;7.07;;;2.35;;
8716;SDS011;4395;48.554;8.820;2023-03-13T01:40:51;4.50;;;1.88;;
8716;SDS011;4395;48.554;8.820;2023-03-13T01:42:54;4.65;;;1.70;;
8716;SDS011;4395;48.554;8.820;2023-03-13T01:44:59;5.05;;;1.67;;
8716;SDS011;4395;48.554;8.820;2023-03-13T01:47:02;5.35;;;1.92;;
8716;SDS011;4395;48.554;8.820;2023-03-13T01:49:26;5.75;;;1.67;;
8716;SDS011;4395;48.554;8.820;2023-03-13T01:51:42;9.10;;;1.95;;
8716;SDS011;4395;48.554;8.820;2023-03-13T01:53:49;4.15;;;1.42;;
8716;SDS011;4395;48.554;8.820;2023-03-13T01:55:56;2.58;;;1.40;;
8716;SDS011;4395;48.554;8.820;2023-03-13T01:58:01;3.53;;;1.80;;
8716;SDS011;4395;48.554;8.820;2023-03-13T02:00:07;2.95;;;1.35;;
8716;SDS011;4395;48.554;8.820;2023-03-13T02:02:14;3.13;;;1.77;;
8716;SDS011;4395;48.554;8.820;2023-03-13T02:04:17;3.92;;;1.65;;
8716;SDS011;4395;48.554;8.820;2023-03-13T02:06:23;4.05;;;1.35;;
8716;SDS011;4395;48.554;8.820;2023-03-13T02:08:29;5.03;;;1.73;;
8716;SDS011;4395;48.554;8.820;2023-03-13T02:10:38;2.95;;;1.30;;
8716;SDS011;4395;48.554;8.820;2023-03-13T02:12:46;4.13;;;1.55;;
8716;SDS011;4395;48.554;8.820;2023-03-13T02:14:50;6.60;;;2.30;;
8716;SDS011;4395;48.554;8.820;2023-03-13T02:16:53;5.07;;;3.28;;
8716;SDS011;4395;48.554;8.820;2023-03-13T02:18:57;3.75;;;1.73;;
8716;SDS011;4395;48.554;8.820;2023-03-13T02:21:00;5.10;;;1.55;;
8716;SDS011;4395;48.554;8.820;2023-03-13T02:23:13;4.30;;;1.38;;
8716;SDS011;4395;48.554;8.820;2023-03-13T02:25:33;5.90;;;1.70;;
8716;SDS011;4395;48.554;8.820;2023-03-13T02:27:41;5.03;;;1.65;;
8716;SDS011;4395;48.554;8.820;2023-03-13T02:29:46;4.78;;;1.35;;
8716;SDS011;4395;48.554;8.820;2023-03-13T02:31:51;4.28;;;1.73;;
8716;SDS011;4395;48.554;8.820;2023-03-13T02:33:54;4.22;;;1.33;;
8716;SDS011;4395;48.554;8.820;2023-03-13T02:35:59;3.60;;;1.52;;
8716;SDS011;4395;48.554;8.820;2023-03-13T02:38:04;3.85;;;1.67;;
8716;SDS011;4395;48.554;8.820;2023-03-13T02:40:11;6.10;;;1.30;;
8716;SDS011;4395;48.554;8.820;2023-03-13T02:42:18;3.00;;;1.35;;
8716;SDS011;4395;48.554;8.820;2023-03-13T02:44:25;5.28;;;3.33;;
8716;SDS011;4395;48.554;8.820;2023-03-13T02:46:28;2.88;;;2.00;;
8716;SDS011;4395;48.554;8.820;2023-03-13T02:48:33;2.45;;;2.05;;
8716;SDS011;4395;48.554;8.820;2023-03-13T02:50:37;3.13;;;1.63;;
8716;SDS011;4395;48.554;8.820;2023-03-13T02:52:41;3.08;;;1.45;;
8716;SDS011;4395;48.554;8.820;2023-03-13T02:54:47;2.38;;;1.42;;
8716;SDS011;4395;48.554;8.820;2023-03-13T02:56:56;1.92;;;1.10;;
8716;SDS011;4395;48.554;8.820;2023-03-13T02:59:03;2.38;;;1.00;;
8716;SDS011;4395;48.554;8.820;2023-03-13T03:01:09;1.35;;;0.80;;
8716;SDS011;4395;48.554;8.820;2023-03-13T03:03:14;2.55;;;0.80;;
8716;SDS011;4395;48.554;8.820;2023-03-13T03:05:17;2.83;;;1.08;;
8716;SDS011;4395;48.554;8.820;2023-03-13T03:07:20;2.13;;;0.80;;
8716;SDS011;4395;48.554;8.820;2023-03-13T03:09:23;1.52;;;0.50;;
8716;SDS011;4395;48.554;8.820;2023-03-13T03:11:31;1.55;;;1.00;;
8716;SDS011;4395;48.554;8.820;2023-03-13T03:13:38;1.65;;;0.73;;
8716;SDS011;4395;48.554;8.820;2023-03-13T03:15:42;1.98;;;0.80;;
8716;SDS011;4395;48.554;8.820;2023-03-13T03:17:46;1.20;;;0.50;;
8716;SDS011;4395;48.554;8.820;2023-03-13T03:19:48;1.33;;;0.50;;
8716;SDS011;4395;48.554;8.820;2023-03-13T03:21:51;0.73;;;0.50;;
8716;SDS011;4395;48.554;8.820;2023-03-13T03:23:54;1.38;;;0.52;;
8716;SDS011;4395;48.554;8.820;2023-03-13T03:25:58;1.65;;;0.80;;
8716;SDS011;4395;48.554;8.820;2023-03-13T03:28:02;1.70;;;0.65;;
8716;SDS011;4395;48.554;8.820;2023-03-13T03:30:05;1.25;;;1.00;;
8716;SDS011;4395;48.554;8.820;2023-03-13T03:32:12;0.68;;;0.60;;
8716;SDS011;4395;48.554;8.820;2023-03-13T03:34:15;2.20;;;0.70;;
8716;SDS011;4395;48.554;8.820;2023-03-13T03:36:19;1.20;;;0.68;;
8716;SDS011;4395;48.554;8.820;2023-03-13T03:38:24;1.63;;;0.80;;
8716;SDS011;4395;48.554;8.820;2023-03-13T03:40:26;1.23;;;0.70;;
8716;SDS011;4395;48.554;8.820;2023-03-13T03:42:30;1.13;;;0.75;;
8716;SDS011;4395;48.554;8.820;2023-03-13T03:44:33;1.10;;;0.90;;
8716;SDS011;4395;48.554;8.820;2023-03-13T03:46:37;2.28;;;0.70;;
8716;SDS011;4395;48.554;8.820;2023-03-13T03:48:41;2.05;;;0.60;;
8716;SDS011;4395;48.554;8.820;2023-03-13T03:50:45;1.58;;;0.90;;
8716;SDS011;4395;48.554;8.820;2023-03-13T03:52:49;2.35;;;0.88;;
8716;SDS011;4395;48.554;8.820;2023-03-13T03:54:52;1.30;;;0.70;;
8716;SDS011;4395;48.554;8.820;2023-03-13T03:56:55;2.20;;;0.63;;
8716;SDS011;4395;48.554;8.820;2023-03-13T03:58:58;3.63;;;1.50;;
8716;SDS011;4395;48.554;8.820;2023-03-13T04:01:13;2.22;;;0.68;;
8716;SDS011;4395;48.554;8.820;2023-03-13T04:03:16;1.10;;;0.70;;
8716;SDS011;4395;48.554;8.820;2023-03-13T04:05:21;1.92;;;0.65;;
8716;SDS011;4395;48.554;8.820;2023-03-13T04:07:24;0.77;;;0.60;;
8716;SDS011;4395;48.554;8.820;2023-03-13T04:09:27;1.30;;;0.70;;
8716;SDS011;4395;48.554;8.820;2023-03-13T04:11:33;1.65;;;0.80;;
8716;SDS011;4395;48.554;8.820;2023-03-13T04:13:37;2.05;;;0.77;;
8716;SDS011;4395;48.554;8.820;2023-03-13T04:15:40;1.05;;;0.50;;
8716;SDS011;4395;48.554;8.820;2023-03-13T04:17:44;2.35;;;0.75;;
8716;SDS011;4395;48.554;8.820;2023-03-13T04:19:48;1.90;;;0.65;;
8716;SDS011;4395;48.554;8.820;2023-03-13T04:21:52;1.95;;;0.75;;
8716;SDS011;4395;48.554;8.820;2023-03-13T04:23:55;1.25;;;0.80;;
8716;SDS011;4395;48.554;8.820;2023-03-13T04:25:58;1.02;;;0.57;;
8716;SDS011;4395;48.554;8.820;2023-03-13T04:28:01;0.77;;;0.52;;
8716;SDS011;4395;48.554;8.820;2023-03-13T04:30:11;2.58;;;0.63;;
8716;SDS011;4395;48.554;8.820;2023-03-13T04:32:24;1.33;;;0.68;;
8716;SDS011;4395;48.554;8.820;2023-03-13T04:34:57;1.75;;;0.68;;
8716;SDS011;4395;48.554;8.820;2023-03-13T04:37:24;0.80;;;0.40;;
8716;SDS011;4395;48.554;8.820;2023-03-13T04:39:37;0.93;;;0.50;;
8716;SDS011;4395;48.554;8.820;2023-03-13T04:42:00;2.40;;;0.63;;
8716;SDS011;4395;48.554;8.820;2023-03-13T04:44:32;1.35;;;0.50;;
8716;SDS011;4395;48.554;8.820;2023-03-13T04:46:58;1.02;;;0.70;;
8716;SDS011;4395;48.554;8.820;2023-03-13T04:49:29;1.17;;;0.68;;
8716;SDS011;4395;48.554;8.820;2023-03-13T04:51:50;1.95;;;0.57;;
8716;SDS011;4395;48.554;8.820;2023-03-13T04:54:13;0.90;;;0.60;;
8716;SDS011;4395;48.554;8.820;2023-03-13T04:56:39;1.25;;;0.73;;
8716;SDS011;4395;48.554;8.820;2023-03-13T04:59:04;1.20;;;0.70;;
8716;SDS011;4395;48.554;8.820;2023-03-13T05:01:27;1.30;;;0.75;;
8716;SDS011;4395;48.554;8.820;2023-03-13T05:03:50;0.63;;;0.63;;
8716;SDS011;4395;48.554;8.820;2023-03-13T05:06:11;2.00;;;0.60;;
8716;SDS011;4395;48.554;8.820;2023-03-13T05:08:28;0.85;;;0.40;;
8716;SDS011;4395;48.554;8.820;2023-03-13T05:11:02;0.80;;;0.32;;
8716;SDS011;4395;48.554;8.820;2023-03-13T05:13:20;0.65;;;0.43;;
8716;SDS011;4395;48.554;8.820;2023-03-13T05:15:29;2.10;;;0.65;;
8716;SDS011;4395;48.554;8.820;2023-03-13T05:17:47;6.05;;;0.77;;
8716;SDS011;4395;48.554;8.820;2023-03-13T05:19:59;3.55;;;1.83;;
8716;SDS011;4395;48.554;8.820;2023-03-13T05:22:12;7.10;;;3.97;;
8716;SDS011;4395;48.554;8.820;2023-03-13T05:24:27;3.35;;;2.22;;
8716;SDS011;4395;48.554;8.820;2023-03-13T05:26:54;8.15;;;4.38;;
8716;SDS011;4395;48.554;8.820;2023-03-13T05:29:09;8.70;;;4.22;;
8716;SDS011;4395;48.554;8.820;2023-03-13T05:31:30;7.53;;;4.78;;
8716;SDS011;4395;48.554;8.820;2023-03-13T05:33:54;1.98;;;0.85;;
8716;SDS011;4395;48.554;8.820;2023-03-13T05:36:15;1.10;;;1.00;;
8716;SDS011;4395;48.554;8.820;2023-03-13T05:38:32;1.45;;;0.60;;
8716;SDS011;4395;48.554;8.820;2023-03-13T05:40:53;1.02;;;0.95;;
8716;SDS011;4395;48.554;8.820;2023-03-13T05:43:11;1.30;;;1.05;;
8716;SDS011;4395;48.554;8.820;2023-03-13T05:45:40;0.75;;;0.60;;
8716;SDS011;4395;48.554;8.820;2023-03-13T05:48:01;1.95;;;0.50;;
8716;SDS011;4395;48.554;8.820;2023-03-13T05:50:22;1.05;;;0.65;;
8716;SDS011;4395;48.554;8.820;2023-03-13T05:52:43;2.15;;;0.60;;
8716;SDS011;4395;48.554;8.820;2023-03-13T05:54:54;1.65;;;0.50;;
8716;SDS011;4395;48.554;8.820;2023-03-13T05:57:15;0.40;;;0.38;;
8716;SDS011;4395;48.554;8.820;2023-03-13T05:59:40;0.85;;;0.50;;
8716;SDS011;4395;48.554;8.820;2023-03-13T06:02:01;1.08;;;0.40;;
8716;SDS011;4395;48.554;8.820;2023-03-13T06:04:10;1.67;;;0.30;;
8716;SDS011;4395;48.554;8.820;2023-03-13T06:06:14;1.63;;;0.63;;
8716;SDS011;4395;48.554;8.820;2023-03-13T06:08:20;0.88;;;0.68;;
8716;SDS011;4395;48.554;8.820;2023-03-13T06:10:24;1.08;;;0.50;;
8716;SDS011;4395;48.554;8.820;2023-03-13T06:12:26;0.57;;;0.45;;
8716;SDS011;4395;48.554;8.820;2023-03-13T06:14:29;1.05;;;0.50;;
8716;SDS011;4395;48.554;8.820;2023-03-13T06:16:55;0.70;;;0.50;;
8716;SDS011;4395;48.554;8.820;2023-03-13T06:18:59;0.95;;;0.50;;
8716;SDS011;4395;48.554;8.820;2023-03-13T06:21:02;0.52;;;0.40;;
8716;SDS011;4395;48.554;8.820;2023-03-13T06:23:05;2.10;;;0.50;;
8716;SDS011;4395;48.554;8.820;2023-03-13T06:25:08;1.00;;;0.30;;
8716;SDS011;4395;48.554;8.820;2023-03-13T06:27:11;0.40;;;0.25;;
8716;SDS011;4395;48.554;8.820;2023-03-13T06:29:14;0.38;;;0.20;;
8716;SDS011;4395;48.554;8.820;2023-03-13T06:31:17;0.68;;;0.47;;
8716;SDS011;4395;48.554;8.820;2023-03-13T06:33:21;0.45;;;0.40;;
8716;SDS011;4395;48.554;8.820;2023-03-13T06:35:24;0.30;;;0.30;;
8716;SDS011;4395;48.554;8.820;2023-03-13T06:37:27;0.70;;;0.47;;
8716;SDS011;4395;48.554;8.820;2023-03-13T06:39:30;1.10;;;0.47;;
8716;SDS011;4395;48.554;8.820;2023-03-13T06:41:32;0.50;;;0.40;;
8716;SDS011;4395;48.554;8.820;2023-03-13T06:43:35;0.95;;;0.40;;
8716;SDS011;4395;48.554;8.820;2023-03-13T06:45:40;0.30;;;0.30;;
8716;SDS011;4395;48.554;8.820;2023-03-13T06:47:43;0.70;;;0.50;;
8716;SDS011;4395;48.554;8.820;2023-03-13T06:49:47;1.50;;;0.70;;
8716;SDS011;4395;48.554;8.820;2023-03-13T06:51:50;0.40;;;0.40;;
8716;SDS011;4395;48.554;8.820;2023-03-13T06:53:53;1.30;;;0.80;;
8716;SDS011;4395;48.554;8.820;2023-03-13T06:55:59;1.05;;;0.40;;
8716;SDS011;4395;48.554;8.820;2023-03-13T06:58:02;0.57;;;0.30;;
8716;SDS011;4395;48.554;8.820;2023-03-13T07:00:05;1.10;;;0.55;;
8716;SDS011;4395;48.554;8.820;2023-03-13T07:02:11;1.13;;;0.50;;
8716;SDS011;4395;48.554;8.820;2023-03-13T07:04:15;1.15;;;0.55;;
8716;SDS011;4395;48.554;8.820;2023-03-13T07:06:19;0.40;;;0.40;;
8716;SDS011;4395;48.554;8.820;2023-03-13T07:08:22;0.43;;;0.43;;
8716;SDS011;4395;48.554;8.820;2023-03-13T07:10:25;0.68;;;0.47;;
8716;SDS011;4395;48.554;8.820;2023-03-13T07:12:28;1.25;;;0.60;;
8716;SDS011;4395;48.554;8.820;2023-03-13T07:14:31;1.55;;;0.60;;
8716;SDS011;4395;48.554;8.820;2023-03-13T07:16:34;0.95;;;0.70;;
8716;SDS011;4395;48.554;8.820;2023-03-13T07:18:37;3.28;;;1.00;;
8716;SDS011;4395;48.554;8.820;2023-03-13T07:20:42;1.48;;;0.73;;
8716;SDS011;4395;48.554;8.820;2023-03-13T07:22:51;1.67;;;1.27;;
8716;SDS011;4395;48.554;8.820;2023-03-13T07:24:54;1.48;;;1.00;;
8716;SDS011;4395;48.554;8.820;2023-03-13T07:26:57;1.30;;;0.73;;
8716;SDS011;4395;48.554;8.820;2023-03-13T07:29:08;0.57;;;0.38;;
8716;SDS011;4395;48.554;8.820;2023-03-13T07:31:11;0.70;;;0.50;;
8716;SDS011;4395;48.554;8.820;2023-03-13T07:33:16;0.40;;;0.40;;
8716;SDS011;4395;48.554;8.820;2023-03-13T07:35:19;2.20;;;0.60;;
8716;SDS011;4395;48.554;8.820;2023-03-13T07:37:21;1.67;;;0.65;;
8716;SDS011;4395;48.554;8.820;2023-03-13T07:39:25;1.33;;;0.82;;
8716;SDS011;4395;48.554;8.820;2023-03-13T07:41:28;1.15;;;0.50;;
8716;SDS011;4395;48.554;8.820;2023-03-13T07:43:31;1.50;;;1.25;;
8716;SDS011;4395;48.554;8.820;2023-03-13T07:45:35;1.58;;;0.75;;
8716;SDS011;4395;48.554;8.820;2023-03-13T07:47:37;3.97;;;2.22;;
8716;SDS011;4395;48.554;8.820;2023-03-13T07:49:40;3.28;;;2.42;;
8716;SDS011;4395;48.554;8.820;2023-03-13T07:51:44;4.45;;;3.53;;
8716;SDS011;4395;48.554;8.820;2023-03-13T07:53:48;2.38;;;1.77;;
8716;SDS011;4395;48.554;8.820;2023-03-13T07:55:52;3.42;;;1.70;;
8716;SDS011;4395;48.554;8.820;2023-03-13T07:57:56;2.20;;;0.73;;
8716;SDS011;4395;48.554;8.820;2023-03-13T07:59:59;1.15;;;1.08;;
8716;SDS011;4395;48.554;8.820;2023-03-13T08:02:12;1.48;;;0.77;;
8716;SDS011;4395;48.554;8.820;2023-03-13T08:04:16;1.60;;;1.13;;
8716;SDS011;4395;48.554;8.820;2023-03-13T08:06:20;1.40;;;0.82;;
8716;SDS011;4395;48.554;8.820;2023-03-13T08:08:24;1.85;;;1.30;;
8716;SDS011;4395;48.554;8.820;2023-03-13T08:10:27;3.13;;;0.90;;
8716;SDS011;4395;48.554;8.820;2023-03-13T08:12:31;1.70;;;1.40;;
8716;SDS011;4395;48.554;8.820;2023-03-13T08:14:34;1.10;;;1.00;;
8716;SDS011;4395;48.554;8.820;2023-03-13T08:16:36;1.42;;;0.82;;
8716;SDS011;4395;48.554;8.820;2023-03-13T08:18:40;1.65;;;1.15;;
8716;SDS011;4395;48.554;8.820;2023-03-13T08:20:44;1.00;;;0.90;;
8716;SDS011;4395;48.554;8.820;2023-03-13T08:22:46;1.45;;;1.20;;
8716;SDS011;4395;48.554;8.820;2023-03-13T08:24:50;0.75;;;0.75;;
8716;SDS011;4395;48.554;8.820;2023-03-13T08:26:53;0.50;;;0.50;;
8716;SDS011;4395;48.554;8.820;2023-03-13T08:28:58;1.00;;;0.63;;
8716;SDS011;4395;48.554;8.820;2023-03-13T08:31:06;0.60;;;0.60;;
8716;SDS011;4395;48.554;8.820;2023-03-13T08:33:10;1.40;;;0.80;;
8716;SDS011;4395;48.554;8.820;2023-03-13T08:35:13;1.05;;;0.68;;
8716;SDS011;4395;48.554;8.820;2023-03-13T08:37:16;2.53;;;1.10;;
8716;SDS011;4395;48.554;8.820;2023-03-13T08:39:19;1.95;;;0.85;;
8716;SDS011;4395;48.554;8.820;2023-03-13T08:41:22;0.70;;;0.70;;
8716;SDS011;4395;48.554;8.820;2023-03-13T08:43:26;1.07;;;0.60;;
8716;SDS011;4395;48.554;8.820;2023-03-13T08:45:30;1.27;;;0.70;;
8716;SDS011;4395;48.554;8.820;2023-03-13T08:47:33;1.37;;;0.90;;
8716;SDS011;4395;48.554;8.820;2023-03-13T08:49:36;1.27;;;0.83;;
8716;SDS011;4395;48.554;8.820;2023-03-13T08:51:39;0.67;;;0.60;;
8716;SDS011;4395;48.554;8.820;2023-03-13T08:53:42;1.03;;;0.67;;
8716;SDS011;4395;48.554;8.820;2023-03-13T08:55:50;1.43;;;0.67;;
8716;SDS011;4395;48.554;8.820;2023-03-13T08:57:54;2.30;;;0.93;;
8716;SDS011;4395;48.554;8.820;2023-03-13T08:59:56;0.53;;;0.53;;
8716;SDS011;4395;48.554;8.820;2023-03-13T09:02:00;2.70;;;1.57;;
8716;SDS011;4395;48.554;8.820;2023-03-13T09:04:04;1.20;;;1.10;;
8716;SDS011;4395;48.554;8.820;2023-03-13T09:06:07;3.38;;;1.30;;
8716;SDS011;4395;48.554;8.820;2023-03-13T09:08:11;2.53;;;1.63;;
8716;SDS011;4395;48.554;8.820;2023-03-13T09:10:14;1.10;;;1.00;;
8716;SDS011;4395;48.554;8.820;2023-03-13T09:12:17;1.37;;;0.70;;
8716;SDS011;4395;48.554;8.820;2023-03-13T09:14:31;2.07;;;1.50;;
8716;SDS011;4395;48.554;8.820;2023-03-13T09:16:37;1.50;;;1.30;;
8716;SDS011;4395;48.554;8.820;2023-03-13T09:18:41;1.60;;;1.50;;
8716;SDS011;4395;48.554;8.820;2023-03-13T09:20:44;1.47;;;1.00;;
8716;SDS011;4395;48.554;8.820;2023-03-13T09:22:49;2.27;;;0.73;;
8716;SDS011;4395;48.554;8.820;2023-03-13T09:24:52;1.00;;;0.90;;
8716;SDS011;4395;48.554;8.820;2023-03-13T09:26:54;0.80;;;0.80;;
8716;SDS011;4395;48.554;8.820;2023-03-13T09:29:02;1.30;;;1.20;;
8716;SDS011;4395;48.554;8.820;2023-03-13T09:31:05;2.77;;;1.20;;
8716;SDS011;4395;48.554;8.820;2023-03-13T09:33:09;2.67;;;1.03;;
8716;SDS011;4395;48.554;8.820;2023-03-13T09:35:13;2.07;;;1.07;;
8716;SDS011;4395;48.554;8.820;2023-03-13T09:37:16;0.63;;;0.63;;
8716;SDS011;4395;48.554;8.820;2023-03-13T09:39:18;2.63;;;1.97;;
8716;SDS011;4395;48.554;8.820;2023-03-13T09:41:23;3.63;;;2.20;;
8716;SDS011;4395;48.554;8.820;2023-03-13T09:43:31;4.40;;;2.20;;
8716;SDS011;4395;48.554;8.820;2023-03-13T09:45:41;4.20;;;2.60;;
8716;SDS011;4395;48.554;8.820;2023-03-13T09:47:47;2.03;;;1.40;;
8716;SDS011;4395;48.554;8.820;2023-03-13T09:49:54;4.27;;;1.17;;
8716;SDS011;4395;48.554;8.820;2023-03-13T09:52:08;2.27;;;1.00;;
8716;SDS011;4395;48.554;8.820;2023-03-13T09:54:21;1.43;;;1.00;;
8716;SDS011;4395;48.554;8.820;2023-03-13T09:56:28;0.87;;;0.80;;
8716;SDS011;4395;48.554;8.820;2023-03-13T09:58:35;1.50;;;0.93;;
8716;SDS011;4395;48.554;8.820;2023-03-13T10:00:40;2.07;;;1.20;;
8716;SDS011;4395;48.554;8.820;2023-03-13T10:02:50;1.90;;;1.23;;
8716;SDS011;4395;48.554;8.820;2023-03-13T10:07:19;2.07;;;1.10;;
8716;SDS011;4395;48.554;8.820;2023-03-13T10:09:22;2.20;;;0.90;;
8716;SDS011;4395;48.554;8.820;2023-03-13T10:11:32;2.43;;;1.10;;
8716;SDS011;4395;48.554;8.820;2023-03-13T10:13:41;1.87;;;0.77;;
8716;SDS011;4395;48.554;8.820;2023-03-13T10:15:50;1.63;;;1.13;;
8716;SDS011;4395;48.554;8.820;2023-03-13T10:17:57;1.17;;;1.00;;
8716;SDS011;4395;48.554;8.820;2023-03-13T10:20:07;2.53;;;1.90;;
8716;SDS011;4395;48.554;8.820;2023-03-13T10:22:25;1.30;;;1.20;;
8716;SDS011;4395;48.554;8.820;2023-03-13T10:24:31;2.10;;;1.53;;
8716;SDS011;4395;48.554;8.820;2023-03-13T10:26:36;3.27;;;1.83;;
8716;SDS011;4395;48.554;8.820;2023-03-13T10:28:39;2.57;;;1.43;;
8716;SDS011;4395;48.554;8.820;2023-03-13T10:30:45;3.70;;;1.63;;
8716;SDS011;4395;48.554;8.820;2023-03-13T10:32:49;1.93;;;1.23;;
8716;SDS011;4395;48.554;8.820;2023-03-13T10:34:53;2.50;;;1.23;;
8716;SDS011;4395;48.554;8.820;2023-03-13T10:36:58;1.90;;;1.40;;
8716;SDS011;4395;48.554;8.820;2023-03-13T10:39:04;2.60;;;1.23;;
8716;SDS011;4395;48.554;8.820;2023-03-13T10:41:26;3.70;;;1.60;;
8716;SDS011;4395;48.554;8.820;2023-03-13T10:43:31;2.07;;;1.60;;
8716;SDS011;4395;48.554;8.820;2023-03-13T10:45:34;3.63;;;1.23;;
8716;SDS011;4395;48.554;8.820;2023-03-13T10:47:39;2.40;;;1.50;;
8716;SDS011;4395;48.554;8.820;2023-03-13T10:49:46;1.33;;;1.20;;
8716;SDS011;4395;48.554;8.820;2023-03-13T10:51:51;1.43;;;0.93;;
8716;SDS011;4395;48.554;8.820;2023-03-13T10:53:55;1.03;;;0.93;;
8716;SDS011;4395;48.554;8.820;2023-03-13T10:56:02;1.30;;;1.20;;
8716;SDS011;4395;48.554;8.820;2023-03-13T10:58:14;2.43;;;1.27;;
8716;SDS011;4395;48.554;8.820;2023-03-13T11:00:24;1.23;;;1.10;;
8716;SDS011;4395;48.554;8.820;2023-03-13T11:02:31;2.00;;;1.80;;
8716;SDS011;4395;48.554;8.820;2023-03-13T11:04:36;10.07;;;6.43;;
8716;SDS011;4395;48.554;8.820;2023-03-13T11:06:38;4.63;;;3.50;;
8716;SDS011;4395;48.554;8.820;2023-03-13T11:08:42;3.17;;;2.70;;
8716;SDS011;4395;48.554;8.820;2023-03-13T11:10:55;1.67;;;1.20;;
8716;SDS011;4395;48.554;8.820;2023-03-13T11:13:00;2.40;;;1.40;;
8716;SDS011;4395;48.554;8.820;2023-03-13T11:15:05;2.23;;;1.20;;
8716;SDS011;4395;48.554;8.820;2023-03-13T11:17:19;3.07;;;1.50;;
8716;SDS011;4395;48.554;8.820;2023-03-13T11:19:33;3.50;;;1.70;;
8716;SDS011;4395;48.554;8.820;2023-03-13T11:21:44;1.20;;;1.10;;
8716;SDS011;4395;48.554;8.820;2023-03-13T11:24:01;3.07;;;1.60;;
8716;SDS011;4395;48.554;8.820;2023-03-13T11:26:09;2.03;;;1.40;;
8716;SDS011;4395;48.554;8.820;2023-03-13T11:28:21;2.17;;;1.27;;
8716;SDS011;4395;48.554;8.820;2023-03-13T11:30:41;4.27;;;2.37;;
8716;SDS011;4395;48.554;8.820;2023-03-13T11:32:51;2.37;;;1.57;;
8716;SDS011;4395;48.554;8.820;2023-03-13T11:34:57;5.10;;;2.33;;
8716;SDS011;4395;48.554;8.820;2023-03-13T11:37:04;3.10;;;2.20;;
8716;SDS011;4395;48.554;8.820;2023-03-13T11:39:22;4.40;;;1.90;;
8716;SDS011;4395;48.554;8.820;2023-03-13T11:41:47;4.40;;;2.53;;
8716;SDS011;4395;48.554;8.820;2023-03-13T11:44:05;5.47;;;2.13;;
8716;SDS011;4395;48.554;8.820;2023-03-13T11:46:22;6.10;;;2.50;;
8716;SDS011;4395;48.554;8.820;2023-03-13T11:48:45;3.63;;;2.40;;
8716;SDS011;4395;48.554;8.820;2023-03-13T11:51:10;1.40;;;1.30;;
8716;SDS011;4395;48.554;8.820;2023-03-13T11:53:35;3.20;;;1.10;;
8716;SDS011;4395;48.554;8.820;2023-03-13T11:55:48;1.43;;;1.07;;
8716;SDS011;4395;48.554;8.820;2023-03-13T11:58:01;5.30;;;3.77;;
8716;SDS011;4395;48.554;8.820;2023-03-13T12:00:21;4.00;;;3.27;;
8716;SDS011;4395;48.554;8.820;2023-03-13T12:02:31;3.90;;;2.97;;
8716;SDS011;4395;48.554;8.820;2023-03-13T12:04:38;4.70;;;3.17;;
8716;SDS011;4395;48.554;8.820;2023-03-13T12:06:45;1.97;;;1.60;;
8716;SDS011;4395;48.554;8.820;2023-03-13T12:08:53;3.80;;;1.60;;
8716;SDS011;4395;48.554;8.820;2023-03-13T12:11:03;2.97;;;2.13;;
8716;SDS011;4395;48.554;8.820;2023-03-13T12:13:15;2.40;;;2.20;;
8716;SDS011;4395;48.554;8.820;2023-03-13T12:15:22;5.23;;;1.53;;
8716;SDS011;4395;48.554;8.820;2023-03-13T12:17:29;2.47;;;1.40;;
8716;SDS011;4395;48.554;8.820;2023-03-13T12:19:36;3.17;;;1.60;;
8716;SDS011;4395;48.554;8.820;2023-03-13T12:21:47;2.57;;;1.83;;
8716;SDS011;4395;48.554;8.820;2023-03-13T12:23:56;3.63;;;1.50;;
8716;SDS011;4395;48.554;8.820;2023-03-13T12:26:07;1.37;;;1.27;;
8716;SDS011;4395;48.554;8.820;2023-03-13T12:28:18;1.17;;;1.00;;
8716;SDS011;4395;48.554;8.820;2023-03-13T12:30:32;1.00;;;0.80;;
8716;SDS011;4395;48.554;8.820;2023-03-13T12:32:39;0.90;;;0.77;;
8716;SDS011;4395;48.554;8.820;2023-03-13T12:34:51;2.73;;;1.13;;
8716;SDS011;4395;48.554;8.820;2023-03-13T12:37:01;2.20;;;0.70;;
8716;SDS011;4395;48.554;8.820;2023-03-13T12:39:16;0.97;;;0.67;;
8716;SDS011;4395;48.554;8.820;2023-03-13T12:41:24;1.87;;;0.70;;
8716;SDS011;4395;48.554;8.820;2023-03-13T12:43:33;0.77;;;0.77;;
8716;SDS011;4395;48.554;8.820;2023-03-13T12:45:46;4.07;;;0.70;;
8716;SDS011;4395;48.554;8.820;2023-03-13T12:48:08;1.80;;;0.87;;
8716;SDS011;4395;48.554;8.820;2023-03-13T12:50:41;3.43;;;0.93;;
8716;SDS011;4395;48.554;8.820;2023-03-13T12:53:09;1.27;;;1.00;;
8716;SDS011;4395;48.554;8.820;2023-03-13T12:55:32;2.37;;;1.87;;
8716;SDS011;4395;48.554;8.820;2023-03-13T12:57:59;2.97;;;1.70;;
8716;SDS011;4395;48.554;8.820;2023-03-13T13:00:15;1.30;;;1.20;;
8716;SDS011;4395;48.554;8.820;2023-03-13T13:02:24;2.53;;;1.10;;
8716;SDS011;4395;48.554;8.820;2023-03-13T13:04:30;1.97;;;1.53;;
8716;SDS011;4395;48.554;8.820;2023-03-13T13:06:50;1.63;;;0.53;;
8716;SDS011;4395;48.554;8.820;2023-03-13T13:09:07;2.53;;;1.00;;
8716;SDS011;4395;48.554;8.820;2023-03-13T13:11:38;1.63;;;1.20;;
8716;SDS011;4395;48.554;8.820;2023-03-13T13:13:49;1.17;;;0.80;;
8716;SDS011;4395;48.554;8.820;2023-03-13T13:15:57;1.40;;;0.70;;
8716;SDS011;4395;48.554;8.820;2023-03-13T13:18:04;1.13;;;0.70;;